createdAt,value
2022-12-08T00:00:41.729Z,16.60
2022-12-08T00:01:41.789Z,15.20
2022-12-08T00:02:41.790Z,14.40
2022-12-08T00:03:41.766Z,15.80
2022-12-08T00:04:41.660Z,16.60
2022-12-08T00:05:41.705Z,15.40
2022-12-08T00:06:41.681Z,15.60
2022-12-08T00:07:41.694Z,13.60
2022-12-08T00:08:41.613Z,16.30
2022-12-08T00:09:41.616Z,14.70
2022-12-08T00:10:48.888Z,18.30
2022-12-08T00:11:42.619Z,15.20
2022-12-08T00:12:41.564Z,15.80
2022-12-08T00:13:41.576Z,16.10
2022-12-08T00:14:41.560Z,13.40
2022-12-08T00:15:41.552Z,15.90
2022-12-08T00:16:41.583Z,16.00
2022-12-08T00:17:41.571Z,16.00
2022-12-08T00:18:41.512Z,16.00
2022-12-08T00:19:41.505Z,16.20
2022-12-08T00:20:41.481Z,14.20
2022-12-08T00:21:41.475Z,14.70
2022-12-08T00:22:41.495Z,15.80
2022-12-08T00:23:42.409Z,15.30
2022-12-08T00:24:41.440Z,16.90
2022-12-08T00:25:41.451Z,15.90
2022-12-08T00:26:41.423Z,18.10
2022-12-08T00:27:41.414Z,14.70
2022-12-08T00:28:41.419Z,16.00
2022-12-08T00:29:41.397Z,15.60
2022-12-08T00:30:41.391Z,16.30
2022-12-08T00:31:41.439Z,17.60
2022-12-08T00:32:41.348Z,17.30
2022-12-08T00:33:41.389Z,17.90
2022-12-08T00:34:41.338Z,15.20
2022-12-08T00:35:43.434Z,17.00
2022-12-08T00:36:41.308Z,21.10
2022-12-08T00:37:41.327Z,16.70
2022-12-08T00:38:41.284Z,17.20
2022-12-08T00:39:41.329Z,16.40
2022-12-08T00:40:41.262Z,15.40
2022-12-08T00:41:41.279Z,15.60
2022-12-08T00:42:41.259Z,16.20
2022-12-08T00:43:41.262Z,22.10
2022-12-08T00:44:41.234Z,16.30
2022-12-08T00:45:41.289Z,17.30
2022-12-08T00:46:41.199Z,17.10
2022-12-08T00:47:41.212Z,15.90
2022-12-08T00:48:41.170Z,18.80
2022-12-08T00:49:41.182Z,15.80
2022-12-08T00:50:41.204Z,16.60
2022-12-08T00:51:41.142Z,16.00
2022-12-08T00:52:41.151Z,17.60
2022-12-08T00:53:41.135Z,16.70
2022-12-08T00:54:41.102Z,15.90
2022-12-08T00:55:41.124Z,16.10
2022-12-08T00:56:41.081Z,15.70
2022-12-08T00:57:41.122Z,18.90
2022-12-08T00:58:41.087Z,15.90
2022-12-08T00:59:41.062Z,14.90
2022-12-08T01:00:41.591Z,17.10
2022-12-08T01:01:41.099Z,16.60
2022-12-08T01:02:41.024Z,16.20
2022-12-08T01:03:41.086Z,15.90
2022-12-08T01:04:41.012Z,14.80
2022-12-08T01:05:41.943Z,16.30
2022-12-08T01:06:41.003Z,14.60
2022-12-08T01:07:41.046Z,15.10
2022-12-08T01:08:40.963Z,18.90
2022-12-08T01:09:40.973Z,17.00
2022-12-08T01:10:40.968Z,16.20
2022-12-08T01:11:40.913Z,16.00
2022-12-08T01:12:40.904Z,16.80
2022-12-08T01:13:40.904Z,15.60
2022-12-08T01:14:40.882Z,18.20
2022-12-08T01:15:40.880Z,16.90
2022-12-08T01:16:40.968Z,16.90
2022-12-08T01:17:40.855Z,16.90
2022-12-08T01:18:40.843Z,16.80
2022-12-08T01:19:40.836Z,17.50
2022-12-08T01:20:40.818Z,17.10
2022-12-08T01:21:40.818Z,17.80
2022-12-08T01:22:40.824Z,16.70
2022-12-08T01:23:40.787Z,19.10
2022-12-08T01:24:40.776Z,18.30
2022-12-08T01:25:40.823Z,16.90
2022-12-08T01:26:41.709Z,20.70
2022-12-08T01:27:40.757Z,16.90
2022-12-08T01:28:40.742Z,17.70
2022-12-08T01:29:40.718Z,18.60
2022-12-08T01:30:40.790Z,20.70
2022-12-08T01:31:40.753Z,20.70
2022-12-08T01:32:40.687Z,20.10
2022-12-08T01:33:40.678Z,20.30
2022-12-08T01:34:40.667Z,18.20
2022-12-08T01:35:40.660Z,18.30
2022-12-08T01:36:40.643Z,18.30
2022-12-08T01:37:40.678Z,20.00
2022-12-08T01:38:40.619Z,17.40
2022-12-08T01:39:40.620Z,22.30
2022-12-08T01:40:40.605Z,21.10
2022-12-08T01:41:40.590Z,17.60
2022-12-08T01:42:40.584Z,20.40
2022-12-08T01:43:40.590Z,19.40
2022-12-08T01:44:40.555Z,20.30
2022-12-08T01:45:40.574Z,20.10
2022-12-08T01:46:40.641Z,20.60
2022-12-08T01:47:40.646Z,18.80
2022-12-08T01:48:40.512Z,21.20
2022-12-08T01:49:40.522Z,19.50
2022-12-08T01:50:40.571Z,20.50
2022-12-08T01:51:40.481Z,19.90
2022-12-08T01:52:40.475Z,18.80
2022-12-08T01:53:40.463Z,17.70
2022-12-08T01:54:40.491Z,20.10
2022-12-08T01:55:40.435Z,22.10
2022-12-08T01:56:40.433Z,20.40
2022-12-08T01:57:40.420Z,19.60
2022-12-08T01:58:40.402Z,18.30
2022-12-08T01:59:40.395Z,19.80
2022-12-08T02:00:40.431Z,20.20
2022-12-08T02:01:40.404Z,19.50
2022-12-08T02:02:40.427Z,19.10
2022-12-08T02:03:40.357Z,20.70
2022-12-08T02:04:40.347Z,21.20
2022-12-08T02:05:40.355Z,20.70
2022-12-08T02:06:40.325Z,20.20
2022-12-08T02:07:40.345Z,20.80
2022-12-08T02:08:40.287Z,21.40
2022-12-08T02:09:40.286Z,21.90
2022-12-08T02:10:40.298Z,23.30
2022-12-08T02:11:40.286Z,24.90
2022-12-08T02:12:40.257Z,21.20
2022-12-08T02:13:40.230Z,21.00
2022-12-08T02:14:40.235Z,24.70
2022-12-08T02:15:40.260Z,21.90
2022-12-08T02:16:41.201Z,22.50
2022-12-08T02:17:40.190Z,22.20
2022-12-08T02:18:40.197Z,22.40
2022-12-08T02:19:40.166Z,22.90
2022-12-08T02:20:41.115Z,21.40
2022-12-08T02:21:40.169Z,21.30
2022-12-08T02:22:40.182Z,22.90
2022-12-08T02:23:40.127Z,21.10
2022-12-08T02:24:40.138Z,21.80
2022-12-08T02:25:40.105Z,22.30
2022-12-08T02:26:40.107Z,24.30
2022-12-08T02:27:40.101Z,22.60
2022-12-08T02:28:40.087Z,23.20
2022-12-08T02:29:40.080Z,23.40
2022-12-08T02:30:40.107Z,23.00
2022-12-08T02:31:40.085Z,23.80
2022-12-08T02:32:40.060Z,25.20
2022-12-08T02:33:40.015Z,27.00
2022-12-08T02:34:40.018Z,24.90
2022-12-08T02:35:40.012Z,24.60
2022-12-08T02:36:39.988Z,24.90
2022-12-08T02:37:39.992Z,25.40
2022-12-08T02:38:40.003Z,24.00
2022-12-08T02:39:39.965Z,27.10
2022-12-08T02:40:39.945Z,26.80
2022-12-08T02:41:39.923Z,23.10
2022-12-08T02:42:39.935Z,26.50
2022-12-08T02:43:39.899Z,25.80
2022-12-08T02:44:39.930Z,27.20
2022-12-08T02:45:39.890Z,24.30
2022-12-08T02:46:39.937Z,23.60
2022-12-08T02:47:39.851Z,26.20
2022-12-08T02:48:39.855Z,22.60
2022-12-08T02:49:39.841Z,25.60
2022-12-08T02:50:39.876Z,24.10
2022-12-08T02:51:39.821Z,23.90
2022-12-08T02:52:39.820Z,23.20
2022-12-08T02:53:39.792Z,24.40
2022-12-08T02:54:39.792Z,23.90
2022-12-08T02:55:39.767Z,24.30
2022-12-08T02:56:39.798Z,25.40
2022-12-08T02:57:39.756Z,27.80
2022-12-08T02:58:39.745Z,25.90
2022-12-08T02:59:39.725Z,27.80
2022-12-08T03:00:39.744Z,26.30
2022-12-08T03:01:39.813Z,26.40
2022-12-08T03:02:39.759Z,24.40
2022-12-08T03:03:39.716Z,21.60
2022-12-08T03:04:39.677Z,24.80
2022-12-08T03:05:39.666Z,21.70
2022-12-08T03:06:39.666Z,22.40
2022-12-08T03:07:39.697Z,20.90
2022-12-08T03:08:39.638Z,22.20
2022-12-08T03:09:39.656Z,21.60
2022-12-08T03:10:40.581Z,18.30
2022-12-08T03:11:39.596Z,20.20
2022-12-08T03:12:39.585Z,20.10
2022-12-08T03:13:39.577Z,20.60
2022-12-08T03:14:39.566Z,18.90
2022-12-08T03:15:39.613Z,19.40
2022-12-08T03:16:39.562Z,19.30
2022-12-08T03:17:39.524Z,20.90
2022-12-08T03:18:39.517Z,20.80
2022-12-08T03:19:39.513Z,19.90
2022-12-08T03:20:39.496Z,21.30
2022-12-08T03:21:39.508Z,21.50
2022-12-08T03:22:39.485Z,24.10
2022-12-08T03:23:39.457Z,22.90
2022-12-08T03:24:39.467Z,25.40
2022-12-08T03:25:39.437Z,24.50
2022-12-08T03:26:39.443Z,24.90
2022-12-08T03:27:39.412Z,25.60
2022-12-08T03:28:39.415Z,23.10
2022-12-08T03:29:39.426Z,24.50
2022-12-08T03:30:39.462Z,24.30
2022-12-08T03:31:39.461Z,22.90
2022-12-08T03:32:39.370Z,22.10
2022-12-08T03:33:39.356Z,24.00
2022-12-08T03:34:39.352Z,20.70
2022-12-08T03:35:39.361Z,21.00
2022-12-08T03:36:39.332Z,22.50
2022-12-08T03:37:39.306Z,21.70
2022-12-08T03:38:39.305Z,24.50
2022-12-08T03:39:39.291Z,20.90
2022-12-08T03:40:39.297Z,21.70
2022-12-08T03:41:39.281Z,21.70
2022-12-08T03:42:39.255Z,22.10
2022-12-08T03:43:39.237Z,20.90
2022-12-08T03:44:39.276Z,21.80
2022-12-08T03:45:39.221Z,21.20
2022-12-08T03:46:39.212Z,20.60
2022-12-08T03:47:39.240Z,19.80
2022-12-08T03:48:39.197Z,20.60
2022-12-08T03:49:39.174Z,20.60
2022-12-08T03:50:40.126Z,20.60
2022-12-08T03:51:39.148Z,21.00
2022-12-08T03:52:39.156Z,17.90
2022-12-08T03:53:39.159Z,19.30
2022-12-08T03:54:39.125Z,21.70
2022-12-08T03:55:39.116Z,21.10
2022-12-08T03:56:39.104Z,19.70
2022-12-08T03:57:39.092Z,18.70
2022-12-08T03:58:39.104Z,18.30
2022-12-08T03:59:39.068Z,20.80
2022-12-08T04:00:39.065Z,17.80
2022-12-08T04:01:39.135Z,19.50
2022-12-08T04:02:39.092Z,18.60
2022-12-08T04:03:39.067Z,18.80
2022-12-08T04:04:39.018Z,17.00
2022-12-08T04:05:39.019Z,16.90
2022-12-08T04:06:38.995Z,17.70
2022-12-08T04:07:39.000Z,16.00
2022-12-08T04:08:38.984Z,15.80
2022-12-08T04:09:38.955Z,17.30
2022-12-08T04:10:38.957Z,15.80
2022-12-08T04:11:38.967Z,14.90
2022-12-08T04:12:38.916Z,16.10
2022-12-08T04:13:38.903Z,17.20
2022-12-08T04:14:38.912Z,16.80
2022-12-08T04:15:38.943Z,17.90
2022-12-08T04:16:38.877Z,15.30
2022-12-08T04:17:38.899Z,15.40
2022-12-08T04:18:38.860Z,16.20
2022-12-08T04:19:38.863Z,14.40
2022-12-08T04:20:38.837Z,14.00
2022-12-08T04:21:38.817Z,16.00
2022-12-08T04:22:39.780Z,16.20
2022-12-08T04:23:38.828Z,16.80
2022-12-08T04:24:38.805Z,17.20
2022-12-08T04:25:38.773Z,16.20
2022-12-08T04:26:38.768Z,15.60
2022-12-08T04:27:38.769Z,14.40
2022-12-08T04:28:38.760Z,18.40
2022-12-08T04:29:38.720Z,14.70
2022-12-08T04:30:38.719Z,16.40
2022-12-08T04:31:38.782Z,16.00
2022-12-08T04:32:41.724Z,15.50
2022-12-08T04:33:39.690Z,14.40
2022-12-08T04:34:38.721Z,15.80
2022-12-08T04:35:38.670Z,15.00
2022-12-08T04:36:38.669Z,18.10
2022-12-08T04:37:38.645Z,14.70
2022-12-08T04:38:38.640Z,16.10
2022-12-08T04:39:38.620Z,14.90
2022-12-08T04:40:38.636Z,15.00
2022-12-08T04:41:38.594Z,14.90
2022-12-08T04:42:38.586Z,16.10
2022-12-08T04:43:38.571Z,16.60
2022-12-08T04:44:38.566Z,14.60
2022-12-08T04:45:38.551Z,15.00
2022-12-08T04:46:43.184Z,16.20
2022-12-08T04:47:39.537Z,15.50
2022-12-08T04:48:38.526Z,18.60
2022-12-08T04:49:38.503Z,17.30
2022-12-08T04:50:38.516Z,18.00
2022-12-08T04:51:38.523Z,18.90
2022-12-08T04:52:38.611Z,16.30
2022-12-08T04:53:43.411Z,16.40
2022-12-08T04:54:39.454Z,15.60
2022-12-08T04:55:38.443Z,16.20
2022-12-08T04:56:38.438Z,16.20
2022-12-08T04:57:38.455Z,15.70
2022-12-08T04:58:38.415Z,14.60
2022-12-08T04:59:38.394Z,14.80
2022-12-08T05:00:38.416Z,15.90
2022-12-08T05:01:38.528Z,16.30
2022-12-08T05:02:38.428Z,16.40
2022-12-08T05:03:38.382Z,16.60
2022-12-08T05:04:38.621Z,16.40
2022-12-08T05:05:38.327Z,17.00
2022-12-08T05:06:38.350Z,19.90
2022-12-08T05:07:38.386Z,17.20
2022-12-08T05:08:38.312Z,18.30
2022-12-08T05:09:40.236Z,19.10
2022-12-08T05:10:38.277Z,16.20
2022-12-08T05:11:38.313Z,16.90
2022-12-08T05:12:38.259Z,16.90
2022-12-08T05:13:38.253Z,16.30
2022-12-08T05:14:38.260Z,18.10
2022-12-08T05:15:38.263Z,19.40
2022-12-08T05:16:38.296Z,16.90
2022-12-08T05:17:38.207Z,16.20
2022-12-08T05:18:38.203Z,19.40
2022-12-08T05:19:38.229Z,23.70
2022-12-08T05:20:38.171Z,23.90
2022-12-08T05:21:38.167Z,24.40
2022-12-08T05:22:38.172Z,23.20
2022-12-08T05:23:38.144Z,25.30
2022-12-08T05:24:42.547Z,23.40
2022-12-08T05:26:49.379Z,20.20
2022-12-08T05:27:49.302Z,19.90
2022-12-08T05:28:49.274Z,20.30
2022-12-08T05:29:49.272Z,21.40
2022-12-08T05:30:49.228Z,22.00
2022-12-08T05:31:49.295Z,20.60
2022-12-08T05:32:49.200Z,22.10
2022-12-08T05:33:49.251Z,17.30
2022-12-08T05:34:49.177Z,20.30
2022-12-08T05:35:49.187Z,18.40
2022-12-08T05:36:49.150Z,21.30
2022-12-08T05:37:49.175Z,21.80
2022-12-08T05:38:49.138Z,20.40
2022-12-08T05:39:50.232Z,21.70
2022-12-08T05:40:49.118Z,18.00
2022-12-08T05:41:49.101Z,19.80
2022-12-08T05:42:49.123Z,17.70
2022-12-08T05:43:49.936Z,18.90
2022-12-08T05:44:50.236Z,17.20
2022-12-08T05:45:49.123Z,18.90
2022-12-08T05:46:49.383Z,20.30
2022-12-08T05:47:49.041Z,17.90
2022-12-08T05:48:49.059Z,20.10
2022-12-08T05:49:49.013Z,19.30
2022-12-08T05:50:49.008Z,19.60
2022-12-08T05:51:49.021Z,21.30
2022-12-08T05:52:48.999Z,21.10
2022-12-08T05:53:49.011Z,22.70
2022-12-08T05:54:48.965Z,22.60
2022-12-08T05:55:48.949Z,23.50
2022-12-08T05:56:48.961Z,23.70
2022-12-08T05:57:48.920Z,23.80
2022-12-08T05:58:48.979Z,22.00
2022-12-08T05:59:48.910Z,23.30
2022-12-08T06:00:48.906Z,26.50
2022-12-08T06:01:48.931Z,22.50
2022-12-08T06:02:49.023Z,19.50
2022-12-08T06:03:48.875Z,18.30
2022-12-08T06:04:53.148Z,20.90
2022-12-08T06:05:48.839Z,18.70
2022-12-08T06:06:48.853Z,19.00
2022-12-08T06:07:48.849Z,19.90
2022-12-08T06:08:48.815Z,20.90
2022-12-08T06:09:48.822Z,21.40
2022-12-08T06:10:48.790Z,19.40
2022-12-08T06:11:48.796Z,21.00
2022-12-08T06:12:48.763Z,20.50
2022-12-08T06:13:48.763Z,21.30
2022-12-08T06:14:48.743Z,21.70
2022-12-08T06:15:48.745Z,20.20
2022-12-08T06:16:48.850Z,22.60
2022-12-08T06:17:48.724Z,21.80
2022-12-08T06:18:48.708Z,20.20
2022-12-08T06:19:48.685Z,22.30
2022-12-08T06:22:06.547Z,20.60
2022-12-08T06:23:05.766Z,21.60
2022-12-08T06:24:05.796Z,22.00
2022-12-08T06:25:09.561Z,21.60
2022-12-08T06:26:05.715Z,22.00
2022-12-08T06:27:05.995Z,21.40
2022-12-08T06:28:05.690Z,22.30
2022-12-08T06:29:05.670Z,20.10
2022-12-08T06:30:06.003Z,23.00
2022-12-08T06:31:05.655Z,19.60
2022-12-08T06:32:05.692Z,20.30
2022-12-08T06:33:06.488Z,20.80
2022-12-08T06:34:05.617Z,20.20
2022-12-08T06:35:05.791Z,20.30
2022-12-08T06:36:05.608Z,21.20
2022-12-08T06:37:05.588Z,21.60
2022-12-08T06:38:06.417Z,21.00
2022-12-08T06:39:05.893Z,19.90
2022-12-08T06:40:05.894Z,22.80
2022-12-08T06:41:05.944Z,20.30
2022-12-08T06:42:05.983Z,18.30
2022-12-08T06:43:05.510Z,21.80
2022-12-08T06:44:06.483Z,21.40
2022-12-08T06:45:05.531Z,19.80
2022-12-08T06:46:05.666Z,20.70
2022-12-08T06:47:05.479Z,21.90
2022-12-08T06:48:05.476Z,24.50
2022-12-08T06:49:05.453Z,20.90
2022-12-08T06:50:05.704Z,21.20
2022-12-08T06:51:06.163Z,19.90
2022-12-08T06:52:05.428Z,23.40
2022-12-08T06:53:05.893Z,25.40
2022-12-08T06:54:05.404Z,21.40
2022-12-08T06:55:05.399Z,22.30
2022-12-08T06:56:05.393Z,19.10
2022-12-08T06:57:06.167Z,21.00
2022-12-08T06:58:05.366Z,21.70
2022-12-08T06:59:05.351Z,22.20
2022-12-08T07:00:07.103Z,21.40
2022-12-08T07:01:06.819Z,19.80
2022-12-08T07:02:05.401Z,19.40
2022-12-08T07:03:05.328Z,20.80
2022-12-08T07:04:05.407Z,24.60
2022-12-08T07:05:06.236Z,21.60
2022-12-08T07:06:06.735Z,21.70
2022-12-08T07:07:05.263Z,20.50
2022-12-08T07:08:05.332Z,22.90
2022-12-08T07:09:05.678Z,25.20
2022-12-08T07:10:05.392Z,22.60
2022-12-08T07:11:06.185Z,18.00
2022-12-08T07:12:05.207Z,23.30
2022-12-08T07:13:05.354Z,22.50
2022-12-08T07:14:05.213Z,21.20
2022-12-08T07:15:05.166Z,22.40
2022-12-08T07:16:05.191Z,20.70
2022-12-08T07:17:05.287Z,22.10
2022-12-08T07:18:05.139Z,23.70
2022-12-08T07:19:05.160Z,22.10
2022-12-08T07:20:05.843Z,24.00
2022-12-08T07:21:06.419Z,24.60
2022-12-08T07:22:05.108Z,23.30
2022-12-08T07:23:06.553Z,23.90
2022-12-08T07:24:05.070Z,23.30
2022-12-08T07:25:05.189Z,23.10
2022-12-08T07:26:05.052Z,24.90
2022-12-08T07:27:05.208Z,25.00
2022-12-08T07:28:05.046Z,25.80
2022-12-08T07:29:05.030Z,22.30
2022-12-08T07:30:05.267Z,25.00
2022-12-08T07:31:05.603Z,26.80
2022-12-08T07:32:04.988Z,25.40
2022-12-08T07:33:06.429Z,29.80
2022-12-08T07:34:05.414Z,24.20
2022-12-08T07:35:04.963Z,23.00
2022-12-08T07:36:04.949Z,24.20
2022-12-08T07:37:05.203Z,23.80
2022-12-08T07:38:04.923Z,21.40
2022-12-08T07:39:05.121Z,20.30
2022-12-08T07:40:05.209Z,16.90
2022-12-08T07:41:04.891Z,17.30
2022-12-08T07:42:04.874Z,19.90
2022-12-08T07:43:04.900Z,18.90
2022-12-08T07:44:04.852Z,18.40
2022-12-08T07:45:04.840Z,19.80
2022-12-08T07:46:04.909Z,20.90
2022-12-08T07:47:04.823Z,20.50
2022-12-08T07:48:04.863Z,20.30
2022-12-08T07:49:04.824Z,19.80
2022-12-08T07:50:05.162Z,23.10
2022-12-08T07:51:04.782Z,20.80
2022-12-08T07:52:04.760Z,19.10
2022-12-08T07:53:04.779Z,22.60
2022-12-08T07:54:04.740Z,21.80
2022-12-08T07:55:04.744Z,21.80
2022-12-08T07:56:04.715Z,20.00
2022-12-08T07:57:04.803Z,19.90
2022-12-08T07:58:04.762Z,20.20
2022-12-08T07:59:05.563Z,16.30
2022-12-08T08:00:04.934Z,16.40
2022-12-08T08:01:05.020Z,15.20
2022-12-08T08:02:23.429Z,16.60
2022-12-08T08:03:05.666Z,17.40
2022-12-08T08:04:06.064Z,16.70
2022-12-08T08:05:04.686Z,17.00
2022-12-08T08:06:06.293Z,16.90
2022-12-08T08:07:04.614Z,16.90
2022-12-08T08:08:04.658Z,14.50
2022-12-08T08:09:06.057Z,14.20
2022-12-08T08:10:04.863Z,15.90
2022-12-08T08:11:11.317Z,14.00
2022-12-08T08:13:16.037Z,13.20
2022-12-08T08:14:17.957Z,14.20
2022-12-08T08:15:16.039Z,13.80
2022-12-08T08:16:17.023Z,13.70
2022-12-08T08:17:17.518Z,14.50
2022-12-08T08:18:17.435Z,12.80
2022-12-08T08:19:17.458Z,13.50
2022-12-08T08:20:15.957Z,13.90
2022-12-08T08:21:43.629Z,14.20
2022-12-08T08:22:17.378Z,13.40
2022-12-08T08:23:15.978Z,14.00
2022-12-08T08:24:15.903Z,13.90
2022-12-08T08:25:15.930Z,14.50
2022-12-08T08:26:15.878Z,14.40
2022-12-08T08:27:15.933Z,13.10
2022-12-08T08:28:17.293Z,12.80
2022-12-08T08:29:15.883Z,12.00
2022-12-08T08:30:20.286Z,13.40
2022-12-08T08:31:17.820Z,11.40
2022-12-08T08:32:16.041Z,14.60
2022-12-08T08:33:15.831Z,12.90
2022-12-08T08:34:15.804Z,13.50
2022-12-08T08:35:16.558Z,12.80
2022-12-08T08:36:15.770Z,13.40
2022-12-08T08:37:15.869Z,12.40
2022-12-08T08:38:15.763Z,13.30
2022-12-08T08:39:15.871Z,12.50
2022-12-08T08:40:15.757Z,14.50
2022-12-08T08:41:16.603Z,13.30
2022-12-08T08:42:15.737Z,15.50
2022-12-08T08:43:15.693Z,14.90
2022-12-08T08:44:15.693Z,15.80
2022-12-08T08:45:15.716Z,15.50
2022-12-08T08:46:17.148Z,14.30
2022-12-08T08:47:17.142Z,15.20
2022-12-08T08:48:15.646Z,14.30
2022-12-08T08:49:15.714Z,15.20
2022-12-08T08:50:15.616Z,15.20
2022-12-08T08:51:15.659Z,14.60
2022-12-08T08:52:15.596Z,16.40
2022-12-08T08:53:15.598Z,16.10
2022-12-08T08:54:15.627Z,17.50
2022-12-08T08:55:15.720Z,17.30
2022-12-08T08:56:15.574Z,15.50
2022-12-08T08:57:17.507Z,16.60
2022-12-08T08:58:16.546Z,17.10
2022-12-08T08:59:15.598Z,17.10
2022-12-08T09:00:15.506Z,16.90
2022-12-08T09:01:17.014Z,19.90
2022-12-08T09:02:15.620Z,17.90
2022-12-08T09:03:16.665Z,18.00
2022-12-08T09:04:15.498Z,20.00
2022-12-08T09:05:15.455Z,18.10
2022-12-08T09:06:15.512Z,16.80
2022-12-08T09:07:15.455Z,19.50
2022-12-08T09:08:15.467Z,18.20
2022-12-08T09:09:15.397Z,20.10
2022-12-08T09:10:15.425Z,21.30
2022-12-08T09:11:15.406Z,22.60
2022-12-08T09:12:15.366Z,21.30
2022-12-08T09:13:16.172Z,22.10
2022-12-08T09:14:15.367Z,22.70
2022-12-08T09:15:15.337Z,22.50
2022-12-08T09:16:15.463Z,21.90
2022-12-08T09:17:15.367Z,23.50
2022-12-08T09:18:16.759Z,24.30
2022-12-08T09:19:15.387Z,22.40
2022-12-08T09:20:15.486Z,21.90
2022-12-08T09:21:16.268Z,23.20
2022-12-08T09:22:15.264Z,22.50
2022-12-08T09:23:15.259Z,26.00
2022-12-08T09:24:15.253Z,25.10
2022-12-08T09:25:15.241Z,26.40
2022-12-08T09:26:15.250Z,28.60
2022-12-08T09:27:15.240Z,23.00
2022-12-08T09:28:15.203Z,27.40
2022-12-08T09:29:15.191Z,27.40
2022-12-08T09:30:15.178Z,25.60
2022-12-08T09:31:15.208Z,28.80
2022-12-08T09:32:15.174Z,27.30
2022-12-08T09:33:15.143Z,27.20
2022-12-08T09:34:15.580Z,26.90
2022-12-08T09:35:15.130Z,26.30
2022-12-08T09:36:15.115Z,27.30
2022-12-08T09:37:15.147Z,29.00
2022-12-08T09:38:15.090Z,27.90
2022-12-08T09:39:15.132Z,28.20
2022-12-08T09:40:16.011Z,25.30
2022-12-08T09:41:15.087Z,28.10
2022-12-08T09:42:15.042Z,27.90
2022-12-08T09:43:15.056Z,26.00
2022-12-08T09:44:15.027Z,25.10
2022-12-08T09:45:15.013Z,24.20
2022-12-08T09:46:15.156Z,22.00
2022-12-08T09:47:14.991Z,25.30
2022-12-08T09:48:14.983Z,24.20
2022-12-08T09:49:14.973Z,23.20
2022-12-08T09:50:15.914Z,25.00
2022-12-08T09:51:14.954Z,24.00
2022-12-08T09:52:14.974Z,24.80
2022-12-08T09:53:14.924Z,26.40
2022-12-08T09:54:14.939Z,23.20
2022-12-08T09:55:14.903Z,24.90
2022-12-08T09:56:14.893Z,25.00
2022-12-08T09:57:15.836Z,24.40
2022-12-08T09:58:14.916Z,24.20
2022-12-08T09:59:14.891Z,23.60
2022-12-08T10:00:14.853Z,21.90
2022-12-08T10:01:14.859Z,24.80
2022-12-08T10:02:14.870Z,23.30
2022-12-08T10:03:16.816Z,25.50
2022-12-08T10:04:14.830Z,20.60
2022-12-08T10:05:14.935Z,21.70
2022-12-08T10:06:14.921Z,23.40
2022-12-08T10:07:14.786Z,24.20
2022-12-08T10:08:14.815Z,20.60
2022-12-08T10:09:17.201Z,22.40
2022-12-08T10:10:15.846Z,21.30
2022-12-08T10:11:14.737Z,22.20
2022-12-08T10:12:14.717Z,23.60
2022-12-08T10:13:14.703Z,23.40
2022-12-08T10:14:14.688Z,23.10
2022-12-08T10:15:14.729Z,21.90
2022-12-08T10:16:21.283Z,22.90
2022-12-08T10:17:15.671Z,22.60
2022-12-08T10:18:14.653Z,22.90
2022-12-08T10:19:14.651Z,23.00
2022-12-08T10:20:14.633Z,23.00
2022-12-08T10:21:14.670Z,25.10
2022-12-08T10:22:14.609Z,22.10
2022-12-08T10:23:14.604Z,24.10
2022-12-08T10:24:14.581Z,20.50
2022-12-08T10:25:14.587Z,24.90
2022-12-08T10:26:14.571Z,25.70
2022-12-08T10:27:15.520Z,21.40
2022-12-08T10:28:14.571Z,21.40
2022-12-08T10:29:14.539Z,22.20
2022-12-08T10:30:14.553Z,20.40
2022-12-08T10:31:14.562Z,23.60
2022-12-08T10:32:14.502Z,22.80
2022-12-08T10:33:14.494Z,22.40
2022-12-08T10:34:14.488Z,23.50
2022-12-08T10:35:14.493Z,22.60
2022-12-08T10:36:14.626Z,22.50
2022-12-08T10:37:16.434Z,26.00
2022-12-08T10:38:14.442Z,24.60
2022-12-08T10:39:14.430Z,21.30
2022-12-08T10:40:14.436Z,27.00
2022-12-08T10:41:15.385Z,22.40
2022-12-08T10:42:14.399Z,24.40
2022-12-08T10:43:14.420Z,24.90
2022-12-08T10:44:14.384Z,24.10
2022-12-08T10:45:14.355Z,25.30
2022-12-08T10:46:14.418Z,26.20
2022-12-08T10:47:14.408Z,24.90
2022-12-08T10:48:14.353Z,23.90
2022-12-08T10:49:14.307Z,23.60
2022-12-08T10:50:14.307Z,23.30
2022-12-08T10:51:14.903Z,24.30
2022-12-08T10:52:14.294Z,26.40
2022-12-08T10:53:14.305Z,26.80
2022-12-08T10:54:19.026Z,23.70
2022-12-08T10:55:15.235Z,25.30
2022-12-08T10:56:14.264Z,25.10
2022-12-08T10:57:14.225Z,24.50
2022-12-08T10:58:14.261Z,23.10
2022-12-08T10:59:14.192Z,25.80
2022-12-08T11:00:14.841Z,22.60
2022-12-08T11:01:14.193Z,21.70
2022-12-08T11:02:14.289Z,25.20
2022-12-08T11:03:14.154Z,23.20
2022-12-08T11:04:14.197Z,22.30
2022-12-08T11:05:14.137Z,22.20
2022-12-08T11:06:14.161Z,23.10
2022-12-08T11:07:14.107Z,24.40
2022-12-08T11:08:14.235Z,26.70
2022-12-08T11:09:14.097Z,28.00
2022-12-08T11:10:14.123Z,22.40
2022-12-08T11:11:15.029Z,22.20
2022-12-08T11:12:14.105Z,28.00
2022-12-08T11:13:14.046Z,21.80
2022-12-08T11:14:14.039Z,24.10
2022-12-08T11:15:14.059Z,23.70
2022-12-08T11:16:14.069Z,24.00
2022-12-08T11:17:14.006Z,22.80
2022-12-08T11:18:13.995Z,25.00
2022-12-08T11:19:13.969Z,24.10
2022-12-08T11:20:13.993Z,23.90
2022-12-08T11:21:14.031Z,22.40
2022-12-08T11:22:13.951Z,22.90
2022-12-08T11:23:13.958Z,21.00
2022-12-08T11:24:13.931Z,20.90
2022-12-08T11:25:13.919Z,22.20
2022-12-08T11:26:13.962Z,26.10
2022-12-08T11:27:13.930Z,22.80
2022-12-08T11:28:13.880Z,22.60
2022-12-08T11:29:13.937Z,22.80
2022-12-08T11:30:14.820Z,22.20
2022-12-08T11:31:13.921Z,23.70
2022-12-08T11:32:13.919Z,27.10
2022-12-08T11:33:13.864Z,22.50
2022-12-08T11:34:13.832Z,23.60
2022-12-08T11:35:13.916Z,23.90
2022-12-08T11:36:13.796Z,23.90
2022-12-08T11:37:13.898Z,24.60
2022-12-08T11:38:21.736Z,22.50
2022-12-08T11:39:14.797Z,21.40
2022-12-08T11:40:13.789Z,23.30
2022-12-08T11:41:16.361Z,23.40
2022-12-08T11:42:13.730Z,21.10
2022-12-08T11:43:13.721Z,21.70
2022-12-08T11:44:14.392Z,22.20
2022-12-08T11:45:13.733Z,21.20
2022-12-08T11:46:13.792Z,24.10
2022-12-08T11:47:13.678Z,25.80
2022-12-08T11:48:13.665Z,21.50
2022-12-08T11:49:13.643Z,24.60
2022-12-08T11:50:18.129Z,21.30
2022-12-08T11:51:14.663Z,19.80
2022-12-08T11:52:13.621Z,22.40
2022-12-08T11:53:13.605Z,22.00
2022-12-08T11:54:13.614Z,20.20
2022-12-08T11:55:13.584Z,21.50
2022-12-08T11:56:13.586Z,22.00
2022-12-08T11:57:13.575Z,21.90
2022-12-08T11:58:13.590Z,21.40
2022-12-08T11:59:13.543Z,21.50
2022-12-08T12:00:13.583Z,23.70
2022-12-08T12:01:13.518Z,19.90
2022-12-08T12:02:13.643Z,19.70
2022-12-08T12:03:13.553Z,20.90
2022-12-08T12:04:13.501Z,19.60
2022-12-08T12:05:15.318Z,22.20
2022-12-08T12:06:30.807Z,24.00
2022-12-08T12:07:14.499Z,23.20
2022-12-08T12:08:13.488Z,24.40
2022-12-08T12:09:13.436Z,28.40
2022-12-08T12:10:13.427Z,20.90
2022-12-08T12:11:13.421Z,21.90
2022-12-08T12:12:13.443Z,24.80
2022-12-08T12:13:13.418Z,19.70
2022-12-08T12:14:13.382Z,22.20
2022-12-08T12:15:13.370Z,24.40
2022-12-08T12:16:13.411Z,23.30
2022-12-08T12:17:13.397Z,27.30
2022-12-08T12:18:16.737Z,25.50
2022-12-08T12:19:13.325Z,28.20
2022-12-08T12:20:13.424Z,29.20
2022-12-08T12:21:13.305Z,24.00
2022-12-08T12:22:13.305Z,26.40
2022-12-08T12:23:13.264Z,26.60
2022-12-08T12:24:13.270Z,29.10
2022-12-08T12:25:13.270Z,30.80
2022-12-08T12:26:13.250Z,27.60
2022-12-08T12:27:13.265Z,29.90
2022-12-08T12:28:13.222Z,28.90
2022-12-08T12:29:13.199Z,26.70
2022-12-08T12:30:13.229Z,26.20
2022-12-08T12:31:13.245Z,26.40
2022-12-08T12:32:13.181Z,26.60
2022-12-08T12:33:13.194Z,26.50
2022-12-08T12:34:14.750Z,26.60
2022-12-08T12:35:13.163Z,25.90
2022-12-08T12:36:13.327Z,25.60
2022-12-08T12:37:13.117Z,26.60
2022-12-08T12:38:13.292Z,24.40
2022-12-08T12:39:13.686Z,23.70
2022-12-08T12:40:13.112Z,26.40
2022-12-08T12:41:13.088Z,22.90
2022-12-08T12:42:13.074Z,23.40
2022-12-08T12:43:13.054Z,22.30
2022-12-08T12:44:13.075Z,22.50
2022-12-08T12:45:13.043Z,23.80
2022-12-08T12:46:13.081Z,23.00
2022-12-08T12:47:13.282Z,22.50
2022-12-08T12:48:13.004Z,24.20
2022-12-08T12:49:12.982Z,21.50
2022-12-08T12:50:13.070Z,25.50
2022-12-08T12:51:14.760Z,20.50
2022-12-08T12:52:12.964Z,22.90
2022-12-08T12:53:14.014Z,23.60
2022-12-08T12:54:12.975Z,22.70
2022-12-08T12:55:12.945Z,22.90
2022-12-08T12:56:13.127Z,24.90